createdAt,value
2022-12-25T00:02:06.924Z,96302.97
2022-12-25T00:04:35.144Z,96305.81
2022-12-25T00:07:03.170Z,96317.06
2022-12-25T00:09:31.343Z,96314.97
2022-12-25T00:11:59.449Z,96315.22
2022-12-25T00:14:27.537Z,96317.31
2022-12-25T00:16:55.592Z,96314.44
2022-12-25T00:19:24.923Z,96308.63
2022-12-25T00:21:52.959Z,96313.34
2022-12-25T00:24:20.982Z,96320.19
2022-12-25T00:26:49.177Z,96316.50
2022-12-25T00:29:17.260Z,96315.72
2022-12-25T00:31:45.536Z,96313.34
2022-12-25T00:34:13.553Z,96309.44
2022-12-25T00:36:43.039Z,96316.50
2022-12-25T00:39:11.377Z,96317.56
2022-12-25T00:41:57.226Z,96325.69
2022-12-25T00:44:25.329Z,96325.94
2022-12-25T00:46:53.540Z,96329.59
2022-12-25T00:49:23.827Z,96331.72
2022-12-25T00:51:53.760Z,96332.53
2022-12-25T00:54:22.726Z,96335.41
2022-12-25T00:56:50.717Z,96330.69
2022-12-25T00:59:18.833Z,96334.41
2022-12-25T01:01:47.122Z,96335.75
2022-12-25T01:04:15.298Z,96333.13
2022-12-25T01:06:43.361Z,96339.72
2022-12-25T01:09:30.151Z,96332.91
2022-12-25T01:11:58.134Z,96325.84
2022-12-25T01:14:26.160Z,96332.72
2022-12-25T01:16:54.246Z,96332.97
2022-12-25T01:19:22.374Z,96333.00
2022-12-25T01:21:50.547Z,96332.72
2022-12-25T01:24:20.026Z,96338.22
2022-12-25T01:26:48.255Z,96333.00
2022-12-25T01:29:16.358Z,96340.06
2022-12-25T01:31:44.773Z,96332.72
2022-12-25T01:34:12.953Z,96342.44
2022-12-25T01:36:41.011Z,96341.63
2022-12-25T01:39:09.123Z,96344.75
2022-12-25T01:41:38.616Z,96342.41
2022-12-25T01:44:09.473Z,96348.69
2022-12-25T01:46:37.924Z,96346.84
2022-12-25T01:49:09.436Z,96354.47
2022-12-25T01:51:41.193Z,96349.75
2022-12-25T01:54:14.072Z,96342.41
2022-12-25T01:56:46.548Z,96348.69
2022-12-25T01:59:18.678Z,96340.03
2022-12-25T02:01:47.584Z,96344.47
2022-12-25T02:04:21.332Z,96346.56
2022-12-25T02:06:52.484Z,96340.81
2022-12-25T02:09:20.467Z,96338.19
2022-12-25T02:11:59.198Z,96346.03
2022-12-25T02:14:31.167Z,96343.94
2022-12-25T02:17:08.287Z,96340.28
2022-12-25T02:20:04.092Z,96342.38
2022-12-25T02:22:43.361Z,96341.34
2022-12-25T02:25:31.696Z,96339.75
2022-12-25T02:28:14.304Z,96344.97
2022-12-25T02:30:45.687Z,96343.94
2022-12-25T02:33:35.177Z,96334.22
2022-12-25T02:36:08.587Z,96329.25
2022-12-25T02:39:01.009Z,96322.72
2022-12-25T02:41:31.727Z,96326.38
2022-12-25T02:44:22.104Z,96330.31
2022-12-25T02:47:08.528Z,96319.81
2022-12-25T02:49:55.183Z,96325.06
2022-12-25T02:52:43.072Z,96319.81
2022-12-25T02:55:32.077Z,96323.50
2022-12-25T02:58:34.529Z,96320.88
2022-12-25T03:01:25.139Z,96317.22
2022-12-25T03:04:15.455Z,96318.25
2022-12-25T03:06:58.247Z,96305.16
2022-12-25T03:09:45.584Z,96316.94
2022-12-25T03:12:23.852Z,96314.31
2022-12-25T03:15:09.679Z,96309.34
2022-12-25T03:17:39.233Z,96306.19
2022-12-25T03:20:27.228Z,96303.84
2022-12-25T03:23:13.667Z,96299.66
2022-12-25T03:25:59.645Z,96297.31
2022-12-25T03:28:27.901Z,96304.09
2022-12-25T03:31:13.757Z,96305.16
2022-12-25T03:34:23.655Z,96302.53
2022-12-25T03:37:10.027Z,96302.28
2022-12-25T03:40:04.213Z,96292.06
2022-12-25T03:42:56.681Z,96291.03
2022-12-25T03:45:49.143Z,96288.94
2022-12-25T03:48:36.317Z,96277.94
2022-12-25T03:51:28.838Z,96274.25
2022-12-25T03:54:20.421Z,96274.78
2022-12-25T03:57:06.907Z,96262.72
2022-12-25T03:59:52.243Z,96271.09
2022-12-25T04:02:37.850Z,96267.44
2022-12-25T04:05:24.080Z,96276.34
2022-12-25T04:08:11.134Z,96276.34
2022-12-25T04:10:56.486Z,96274.00
2022-12-25T04:13:41.645Z,96273.72
2022-12-25T04:16:27.199Z,96270.06
2022-12-25T04:19:12.904Z,96262.72
2022-12-25T04:21:58.577Z,96272.66
2022-12-25T04:24:45.311Z,96267.44
2022-12-25T04:27:30.845Z,96255.63
2022-12-25T04:30:16.444Z,96255.88
2022-12-25T04:33:13.689Z,96251.69
2022-12-25T04:35:59.229Z,96248.81
2022-12-25T04:38:27.311Z,96249.34
2022-12-25T04:40:56.856Z,96254.59
2022-12-25T04:43:25.505Z,96256.16
2022-12-25T04:45:54.849Z,96252.25
2022-12-25T04:48:23.402Z,96251.44
2022-12-25T04:50:51.545Z,96247.00
2022-12-25T04:53:20.429Z,96252.22
2022-12-25T04:55:48.475Z,96261.38
2022-12-25T04:58:17.819Z,96251.16
2022-12-25T05:00:45.871Z,96244.88
2022-12-25T05:03:14.125Z,96248.00
2022-12-25T05:05:42.271Z,96258.50
2022-12-25T05:08:10.257Z,96248.81
2022-12-25T05:10:41.060Z,96251.94
2022-12-25T05:13:09.143Z,96248.53
2022-12-25T05:15:40.729Z,96262.16
2022-12-25T05:18:08.876Z,96255.34
2022-12-25T05:20:40.297Z,96260.56
2022-12-25T05:23:10.258Z,96240.91
2022-12-25T05:25:40.885Z,96255.78
2022-12-25T05:28:09.267Z,96255.78
2022-12-25T05:30:38.736Z,96261.25
2022-12-25T05:33:06.843Z,96263.88
2022-12-25T05:35:37.083Z,96271.44
2022-12-25T05:38:05.257Z,96271.41
2022-12-25T05:40:33.499Z,96262.94
2022-12-25T05:43:01.677Z,96259.72
2022-12-25T05:45:29.798Z,96257.31
2022-12-25T05:47:59.296Z,96250.72
2022-12-25T05:50:27.381Z,96253.31
2022-12-25T05:52:55.484Z,96253.28
2022-12-25T05:55:23.522Z,96258.47
2022-12-25T05:57:51.633Z,96257.41
2022-12-25T06:00:20.960Z,96254.75
2022-12-25T06:02:49.159Z,96257.34
2022-12-25T06:05:18.713Z,96256.78
2022-12-25T06:07:46.964Z,96253.91
2022-12-25T06:10:15.148Z,96266.44
2022-12-25T06:12:43.131Z,96270.91
2022-12-25T06:15:11.752Z,96282.91
2022-12-25T06:17:39.815Z,96279.16
2022-12-25T06:20:09.217Z,96272.88
2022-12-25T06:22:38.599Z,96272.78
2022-12-25T06:25:08.570Z,96273.47
2022-12-25T06:27:36.708Z,96260.13
2022-12-25T06:30:05.518Z,96265.91
2022-12-25T06:32:33.550Z,96264.63
2022-12-25T06:35:01.501Z,96263.53
2022-12-25T06:37:29.587Z,96267.09
2022-12-25T06:39:59.004Z,96273.00
2022-12-25T06:42:27.187Z,96277.66
2022-12-25T06:44:55.237Z,96279.25
2022-12-25T06:47:23.299Z,96273.78
2022-12-25T06:49:51.261Z,96274.56
2022-12-25T06:52:19.259Z,96275.66
2022-12-25T06:54:47.906Z,96277.13
2022-12-25T06:57:17.300Z,96285.94
2022-12-25T06:59:49.799Z,96279.38
2022-12-25T07:02:24.346Z,96278.59
2022-12-25T07:04:53.687Z,96278.53
2022-12-25T07:07:23.733Z,96274.28
2022-12-25T07:09:51.934Z,96287.25
2022-12-25T07:12:23.780Z,96281.50
2022-12-25T07:14:54.651Z,96287.75
2022-12-25T07:17:23.975Z,96283.78
2022-12-25T07:19:52.588Z,96292.47
2022-12-25T07:22:20.751Z,96283.31
2022-12-25T07:24:48.863Z,96283.50
2022-12-25T07:27:16.949Z,96287.00
2022-12-25T07:29:46.431Z,96285.91
2022-12-25T07:32:14.552Z,96291.59
2022-12-25T07:34:42.600Z,96290.25
2022-12-25T07:37:10.744Z,96290.47
2022-12-25T07:39:38.691Z,96296.66
2022-12-25T07:42:08.148Z,96298.25
2022-12-25T07:44:36.409Z,96295.69
2022-12-25T07:47:06.046Z,96298.63
2022-12-25T07:49:34.085Z,96292.53
2022-12-25T07:52:02.230Z,96282.34
2022-12-25T07:54:30.234Z,96286.84
2022-12-25T07:56:58.356Z,96292.13
2022-12-25T07:59:26.555Z,96288.59
2022-12-25T08:01:54.765Z,96299.69
2022-12-25T08:04:24.448Z,96301.16
2022-12-25T08:06:52.463Z,96307.19
2022-12-25T08:09:20.504Z,96310.56
2022-12-25T08:11:48.751Z,96315.31
2022-12-25T08:14:16.865Z,96329.69
2022-12-25T08:16:46.567Z,96331.88
2022-12-25T08:19:15.651Z,96320.44
2022-12-25T08:21:45.027Z,96323.38
2022-12-25T08:24:13.129Z,96327.44
2022-12-25T08:26:41.269Z,96327.56
2022-12-25T08:29:10.672Z,96312.41
2022-12-25T08:31:45.760Z,96307.69
2022-12-25T08:34:14.334Z,96313.81
2022-12-25T08:36:42.405Z,96312.25
2022-12-25T08:39:11.926Z,96320.63
2022-12-25T08:41:40.434Z,96324.38
2022-12-25T08:44:08.869Z,96316.56
2022-12-25T08:46:37.339Z,96313.94
2022-12-25T08:49:05.605Z,96322.19
2022-12-25T08:51:34.394Z,96309.44
2022-12-25T08:54:02.528Z,96304.06
2022-12-25T08:56:32.702Z,96307.63
2022-12-25T08:59:00.713Z,96315.94
2022-12-25T09:01:28.857Z,96323.53
2022-12-25T09:03:56.954Z,96310.72
2022-12-25T09:06:24.941Z,96314.66
2022-12-25T09:08:52.997Z,96316.56
2022-12-25T09:11:21.889Z,96310.16
2022-12-25T09:13:51.499Z,96315.22
2022-12-25T09:16:22.362Z,96317.53
2022-12-25T09:18:51.151Z,96318.16
2022-12-25T09:21:20.354Z,96322.72
2022-12-25T09:23:48.609Z,96313.25
2022-12-25T09:26:18.675Z,96307.19
2022-12-25T09:28:51.883Z,96332.72
2022-12-25T09:31:23.820Z,96318.44
2022-12-25T09:33:52.677Z,96305.38
2022-12-25T09:36:23.496Z,96285.00
2022-12-25T09:38:51.765Z,96308.34
2022-12-25T09:41:28.906Z,96313.69
2022-12-25T09:44:04.111Z,96304.50
2022-12-25T09:46:41.246Z,96297.28
2022-12-25T09:49:20.628Z,96308.44
2022-12-25T09:51:54.469Z,96279.66
2022-12-25T09:54:27.954Z,96277.09
2022-12-25T09:56:55.975Z,96290.25
2022-12-25T09:59:26.280Z,96283.69
2022-12-25T10:02:20.667Z,96290.78
2022-12-25T10:05:05.984Z,96288.81
2022-12-25T10:07:42.159Z,96290.91
2022-12-25T10:10:25.410Z,96292.91
2022-12-25T10:13:01.084Z,96288.72
2022-12-25T10:15:39.214Z,96281.97
2022-12-25T10:18:33.414Z,96284.06
2022-12-25T10:21:05.688Z,96276.47
2022-12-25T10:23:40.709Z,96273.13
2022-12-25T10:26:15.738Z,96268.22
2022-12-25T10:28:46.189Z,96259.13
2022-12-25T10:31:21.279Z,96256.97
2022-12-25T10:33:52.855Z,96263.50
2022-12-25T10:36:24.415Z,96264.28
2022-12-25T10:38:52.911Z,96237.84
2022-12-25T10:41:34.379Z,96259.69
2022-12-25T10:44:12.938Z,96252.16
2022-12-25T10:46:42.510Z,96228.91
2022-12-25T10:49:17.651Z,96236.91
2022-12-25T10:51:45.882Z,96225.88
2022-12-25T10:54:24.895Z,96224.59
2022-12-25T10:56:58.037Z,96209.22
2022-12-25T10:59:27.851Z,96224.94
2022-12-25T11:01:57.410Z,96229.94
2022-12-25T11:04:29.568Z,96228.66
2022-12-25T11:07:00.276Z,96214.25
2022-12-25T11:09:28.962Z,96225.28
2022-12-25T11:11:57.466Z,96224.75
2022-12-25T11:14:27.729Z,96194.63
2022-12-25T11:16:55.977Z,96210.34
2022-12-25T11:19:31.208Z,96221.84
2022-12-25T11:22:01.277Z,96225.00
2022-12-25T11:24:30.937Z,96223.94
2022-12-25T11:27:00.894Z,96209.78
2022-12-25T11:29:37.889Z,96209.25
2022-12-25T11:32:12.809Z,96215.25
2022-12-25T11:34:46.680Z,96213.69
2022-12-25T11:37:19.100Z,96209.44
2022-12-25T11:39:47.412Z,96188.91
2022-12-25T11:42:21.012Z,96181.75
2022-12-25T11:44:54.403Z,96171.19
2022-12-25T11:47:27.360Z,96169.81
2022-12-25T11:50:03.088Z,96162.69
2022-12-25T11:52:37.995Z,96167.81
2022-12-25T11:55:16.358Z,96146.78
2022-12-25T11:57:47.944Z,96155.25
2022-12-25T12:00:17.716Z,96136.59
2022-12-25T12:02:50.106Z,96139.66
2022-12-25T12:05:25.944Z,96152.22
2022-12-25T12:08:00.118Z,96160.03
2022-12-25T12:10:44.026Z,96149.31
2022-12-25T12:13:26.536Z,96139.63
2022-12-25T12:15:55.065Z,96143.31
2022-12-25T12:18:25.089Z,96144.41
2022-12-25T12:21:02.857Z,96148.66
2022-12-25T12:23:33.061Z,96143.34
2022-12-25T12:26:01.596Z,96144.41
2022-12-25T12:28:37.654Z,96150.72
2022-12-25T12:31:08.518Z,96134.72
2022-12-25T12:33:39.064Z,96129.19
2022-12-25T12:36:14.155Z,96127.09
2022-12-25T12:38:44.717Z,96134.47
2022-12-25T12:41:15.515Z,96151.28
2022-12-25T12:43:46.840Z,96140.78
2022-12-25T12:46:23.010Z,96150.22
2022-12-25T12:49:10.291Z,96110.91
2022-12-25T12:51:40.091Z,96120.81
2022-12-25T12:54:28.108Z,96129.94
2022-12-25T12:56:58.252Z,96131.22
2022-12-25T12:59:27.286Z,96152.75
2022-12-25T13:02:16.953Z,96142.25
2022-12-25T13:04:56.018Z,96144.59
2022-12-25T13:07:44.207Z,96138.78
2022-12-25T13:10:24.449Z,96133.84
2022-12-25T13:12:57.936Z,96121.53
2022-12-25T13:15:28.694Z,96142.75
2022-12-25T13:18:02.319Z,96128.59
2022-12-25T13:20:40.047Z,96144.19
2022-12-25T13:23:24.653Z,96124.72
2022-12-25T13:25:56.846Z,96133.06
2022-12-25T13:28:29.824Z,96125.16
2022-12-25T13:31:06.949Z,96116.72
2022-12-25T13:33:35.849Z,96122.75
2022-12-25T13:36:04.349Z,96105.25
2022-12-25T13:38:34.208Z,96124.28
2022-12-25T13:41:19.656Z,96122.38
2022-12-25T13:43:50.028Z,96124.94
2022-12-25T13:46:26.396Z,96119.69
2022-12-25T13:48:59.790Z,96124.16
2022-12-25T13:51:29.911Z,96116.00
2022-12-25T13:54:06.644Z,96125.50
2022-12-25T13:56:36.199Z,96132.56
2022-12-25T13:59:05.610Z,96123.38
2022-12-25T14:01:33.807Z,96123.59
2022-12-25T14:04:02.146Z,96134.91
2022-12-25T14:06:33.069Z,96140.94
2022-12-25T14:09:01.309Z,96139.09
2022-12-25T14:11:32.376Z,96131.50
2022-12-25T14:14:03.806Z,96122.53
2022-12-25T14:16:32.303Z,96110.34
2022-12-25T14:19:03.510Z,96126.84
2022-12-25T14:21:34.647Z,96132.94
2022-12-25T14:24:02.830Z,96132.66
2022-12-25T14:26:34.717Z,96130.31
2022-12-25T14:29:16.889Z,96136.69
2022-12-25T14:31:46.942Z,96140.72
2022-12-25T14:34:18.693Z,96137.31
2022-12-25T14:36:50.845Z,96134.16
2022-12-25T14:39:29.570Z,96132.88
2022-12-25T14:41:59.301Z,96139.16
2022-12-25T14:44:33.362Z,96141.72
2022-12-25T14:47:06.860Z,96139.59
2022-12-25T14:49:35.167Z,96145.19
2022-12-25T14:52:11.171Z,96145.78
2022-12-25T14:54:39.461Z,96135.09
2022-12-25T14:57:16.165Z,96117.41
2022-12-25T14:59:44.303Z,96137.06
2022-12-25T15:02:19.999Z,96141.28
2022-12-25T15:04:48.263Z,96142.34
2022-12-25T15:07:31.148Z,96121.41
2022-12-25T15:10:36.410Z,96132.19
2022-12-25T15:12:48.778Z,96132.00
2022-12-25T15:15:17.030Z,96127.84
2022-12-25T15:17:45.132Z,96121.84
2022-12-25T15:20:14.602Z,96117.41
2022-12-25T15:23:02.823Z,96127.44
2022-12-25T15:25:31.816Z,96128.25
2022-12-25T15:28:01.561Z,96119.38
2022-12-25T15:30:30.554Z,96131.47
2022-12-25T15:32:58.585Z,96133.63
2022-12-25T15:35:26.684Z,96140.97
2022-12-25T15:37:54.708Z,96141.53
2022-12-25T15:40:22.875Z,96144.94
2022-12-25T15:42:51.276Z,96140.75
2022-12-25T15:45:24.644Z,96147.91
2022-12-25T15:47:53.101Z,96149.78
2022-12-25T15:50:23.150Z,96150.81
2022-12-25T15:52:51.647Z,96145.06
2022-12-25T15:55:19.851Z,96141.38
2022-12-25T15:57:49.458Z,96116.31
2022-12-25T16:00:22.666Z,96147.44
2022-12-25T16:02:52.289Z,96132.56
2022-12-25T16:05:20.883Z,96126.56
2022-12-25T16:07:49.150Z,96144.13
2022-12-25T16:10:19.493Z,96149.09
2022-12-25T16:12:48.024Z,96148.78
2022-12-25T16:15:16.976Z,96152.50
2022-12-25T16:17:45.223Z,96133.91
2022-12-25T16:20:15.402Z,96137.88
2022-12-25T16:22:47.217Z,96153.66
2022-12-25T16:25:17.739Z,96136.13
2022-12-25T16:27:46.262Z,96155.50
2022-12-25T16:30:16.530Z,96136.91
2022-12-25T16:32:45.415Z,96153.38
2022-12-25T16:35:14.900Z,96156.81
2022-12-25T16:37:43.093Z,96158.38
2022-12-25T16:40:11.946Z,96132.72
2022-12-25T16:42:40.409Z,96126.72
2022-12-25T16:45:09.387Z,96168.09
2022-12-25T16:47:37.835Z,96174.66
2022-12-25T16:50:08.521Z,96161.00
2022-12-25T16:52:37.940Z,96166.78
2022-12-25T16:55:06.718Z,96169.41
2022-12-25T16:57:35.153Z,96159.47
2022-12-25T17:00:03.467Z,96151.88
2022-12-25T17:02:31.873Z,96150.31
2022-12-25T17:05:00.520Z,96165.25
2022-12-25T17:07:28.681Z,96175.47
2022-12-25T17:09:58.252Z,96174.16
2022-12-25T17:12:26.400Z,96160.78
2022-12-25T17:14:54.799Z,96177.03
2022-12-25T17:17:23.134Z,96181.75
2022-12-25T17:19:51.317Z,96177.31
2022-12-25T17:22:19.451Z,96176.78
2022-12-25T17:24:47.500Z,96186.25
2022-12-25T17:27:16.997Z,96170.00
2022-12-25T17:29:47.237Z,96177.09
2022-12-25T17:32:15.418Z,96178.66
2022-12-25T17:34:43.429Z,96211.38
2022-12-25T17:37:11.417Z,96195.69
2022-12-25T17:39:39.715Z,96175.25
2022-12-25T17:42:07.725Z,96189.63
2022-12-25T17:44:37.195Z,96185.19
2022-12-25T17:47:05.342Z,96163.19
2022-12-25T17:49:33.362Z,96178.38
2022-12-25T17:52:01.407Z,96179.41
2022-12-25T17:54:29.753Z,96155.31
2022-12-25T17:56:57.846Z,96179.38
2022-12-25T17:59:29.470Z,96199.75
2022-12-25T18:02:01.967Z,96173.06
2022-12-25T18:04:30.442Z,96190.63
2022-12-25T18:06:58.451Z,96197.16
2022-12-25T18:09:26.447Z,96203.16
2022-12-25T18:11:54.484Z,96202.09
2022-12-25T18:14:22.859Z,96205.75
2022-12-25T18:16:50.824Z,96217.00
2022-12-25T18:19:20.473Z,96208.13
2022-12-25T18:21:48.589Z,96213.84
2022-12-25T18:24:16.645Z,96213.31
2022-12-25T18:26:45.637Z,96215.38
2022-12-25T18:29:13.756Z,96214.81
2022-12-25T18:31:41.888Z,96197.53
2022-12-25T18:34:09.974Z,96193.34
2022-12-25T18:36:39.427Z,96192.28
2022-12-25T18:39:07.798Z,96190.69
2022-12-25T18:41:56.232Z,96187.03
2022-12-25T18:44:24.283Z,96204.28
2022-12-25T18:46:52.738Z,96199.06
2022-12-25T18:49:20.986Z,96192.53
2022-12-25T18:51:51.509Z,96192.31
2022-12-25T18:54:19.622Z,96174.28
2022-12-25T18:56:52.912Z,96193.38
2022-12-25T18:59:21.813Z,96192.38
2022-12-25T19:01:49.900Z,96195.03
2022-12-25T19:04:18.511Z,96193.97
2022-12-25T19:06:46.561Z,96199.13
2022-12-25T19:09:16.148Z,96194.38
2022-12-25T19:11:46.761Z,96206.41
2022-12-25T19:14:15.892Z,96200.66
2022-12-25T19:16:44.252Z,96192.78
2022-12-25T19:19:13.126Z,96189.31
2022-12-25T19:21:41.195Z,96194.75
2022-12-25T19:24:09.344Z,96201.56
2022-12-25T19:26:38.792Z,96196.88
2022-12-25T19:29:06.876Z,96182.81
2022-12-25T19:31:34.863Z,96205.25
2022-12-25T19:34:02.922Z,96203.19
2022-12-25T19:36:31.270Z,96196.88
2022-12-25T19:38:59.619Z,96204.97
2022-12-25T19:41:27.976Z,96207.00
2022-12-25T19:43:57.508Z,96196.81
2022-12-25T19:46:28.248Z,96199.38
2022-12-25T19:48:56.958Z,96209.81
2022-12-25T19:51:27.906Z,96205.09
2022-12-25T19:53:56.428Z,96200.91
2022-12-25T19:56:25.312Z,96205.88
2022-12-25T19:58:54.879Z,96208.72
2022-12-25T20:01:26.865Z,96186.19
2022-12-25T20:03:55.276Z,96214.38
2022-12-25T20:06:26.078Z,96214.88
2022-12-25T20:08:56.261Z,96210.66
2022-12-25T20:11:26.201Z,96216.66
2022-12-25T20:13:55.067Z,96224.78
2022-12-25T20:16:24.989Z,96210.97
2022-12-25T20:18:53.944Z,96218.34
2022-12-25T20:21:23.998Z,96217.59
2022-12-25T20:23:53.653Z,96223.63
2022-12-25T20:26:24.734Z,96232.00
2022-12-25T20:28:53.383Z,96228.06
2022-12-25T20:31:27.451Z,96244.28
2022-12-25T20:33:58.452Z,96243.72
2022-12-25T20:36:31.057Z,96238.78
2022-12-25T20:39:02.691Z,96239.56
2022-12-25T20:41:30.792Z,96243.41
2022-12-25T20:43:59.140Z,96243.09
2022-12-25T20:46:28.164Z,96246.75
2022-12-25T20:48:57.629Z,96250.97
2022-12-25T20:51:28.008Z,96252.56
2022-12-25T20:53:56.446Z,96247.28
2022-12-25T20:56:26.839Z,96257.19
2022-12-25T20:58:56.121Z,96257.75
2022-12-25T21:01:24.901Z,96258.28
2022-12-25T21:03:54.586Z,96260.34
2022-12-25T21:06:24.414Z,96273.41
2022-12-25T21:08:52.836Z,96281.25
2022-12-25T21:11:21.648Z,96274.94
2022-12-25T21:13:50.508Z,96277.50
2022-12-25T21:16:20.865Z,96291.31
2022-12-25T21:18:50.258Z,96303.63
2022-12-25T21:21:18.434Z,96307.28
2022-12-25T21:23:48.101Z,96309.88
2022-12-25T21:26:19.190Z,96316.03
2022-12-25T21:28:47.622Z,96315.69
2022-12-25T21:31:15.852Z,96330.75
2022-12-25T21:33:52.234Z,96338.34
2022-12-25T21:36:22.325Z,96343.03
2022-12-25T21:38:56.267Z,96335.72
2022-12-25T21:41:24.961Z,96342.22
2022-12-25T21:43:53.221Z,96340.16
2022-12-25T21:46:21.584Z,96355.34
2022-12-25T21:48:50.230Z,96353.50
2022-12-25T21:51:38.447Z,96355.81
2022-12-25T21:54:08.929Z,96353.94
2022-12-25T21:56:43.829Z,96368.03
2022-12-25T21:59:14.535Z,96362.50
2022-12-25T22:01:42.925Z,96366.63
2022-12-25T22:04:11.642Z,96342.19
2022-12-25T22:06:57.508Z,96362.38
2022-12-25T22:09:27.555Z,96358.06
2022-12-25T22:12:12.937Z,96360.69
2022-12-25T22:14:56.309Z,96389.28
2022-12-25T22:17:43.998Z,96382.16
2022-12-25T22:20:14.435Z,96387.09
2022-12-25T22:22:42.805Z,96382.03
2022-12-25T22:25:13.571Z,96391.50
2022-12-25T22:27:42.830Z,96387.03
2022-12-25T22:30:13.335Z,96396.19
2022-12-25T22:32:41.586Z,96393.81
2022-12-25T22:35:11.079Z,96371.75
2022-12-25T22:37:39.312Z,96390.97
2022-12-25T22:40:09.179Z,96389.22
2022-12-25T22:42:39.123Z,96385.03
2022-12-25T22:45:07.926Z,96392.13
2022-12-25T22:47:36.065Z,96399.59
2022-12-25T22:50:04.379Z,96399.28
2022-12-25T22:52:32.385Z,96396.13
2022-12-25T22:55:00.601Z,96401.09
2022-12-25T22:57:29.239Z,96399.28
2022-12-25T22:59:58.912Z,96400.06
2022-12-25T23:02:27.251Z,96388.44
2022-12-25T23:04:55.499Z,96398.09
2022-12-25T23:07:23.702Z,96400.78
2022-12-25T23:09:51.865Z,96400.31
2022-12-25T23:12:37.162Z,96396.25
2022-12-25T23:15:07.999Z,96395.75
2022-12-25T23:17:53.553Z,96396.13
2022-12-25T23:20:41.503Z,96411.44
2022-12-25T23:23:31.769Z,96411.19
2022-12-25T23:26:16.447Z,96413.66
2022-12-25T23:29:13.739Z,96415.88
2022-12-25T23:31:44.272Z,96426.47
2022-12-25T23:34:12.350Z,96437.03
2022-12-25T23:36:40.394Z,96437.16
2022-12-25T23:39:10.464Z,96439.34
2022-12-25T23:41:39.707Z,96437.97
2022-12-25T23:44:08.294Z,96439.44
2022-12-25T23:46:36.496Z,96435.22
2022-12-25T23:49:06.202Z,96435.88
2022-12-25T23:51:36.782Z,96434.50
2022-12-25T23:54:05.301Z,96437.56
2022-12-25T23:56:33.761Z,96423.88
2022-12-25T23:59:02.074Z,96429.94
